Shinkai Maru — JJ4012 — position and weather

sailwx.info

Track history (hours):
 
Tides and Currents Weather Stations Pressure Air Temp Water Temp Dewpoint Dewpoint Depression Visibility Wind Speed Wind Dir Waves Ship Positions

Shinkai Maru

Last reported at 2017-Jun-25 05:49 UTC. Time now 2017-Jun-25 10:33 UTC.
Position N 34°40' E 134°48'.

Length 76 m; draft 4.1 m.

Type: Cargo ship. MMSI: 431301346.

Date/timePositionNaut miles runAvg speedWind from/ knotsBaromVisibWave heightAir tempDewpointWater temp
2017-Jun-25 05:49N 34°40' E 134°48'6 9.5
2017-Jun-25 05:11N 34°37' E 134°54'3 9.5
2017-Jun-25 04:50N 34°38' E 134°58'3 8.4
2017-Jun-25 04:30N 34°37' E 135°01'4 8.4
2017-Jun-25 04:00N 34°35' E 135°06'2111.6
2017-Jun-25 02:12N 34°14' E 134°60'212.2
2017-Jun-25 02:00N 34°12' E 134°60'612.4
2017-Jun-25 01:30N 34°06' E 135°01'  
2017-Jun-22 15:07N 35°08' E 139°42'412.6
2017-Jun-22 14:48N 35°11' E 139°45'411.4
2017-Jun-22 14:26N 35°15' E 139°46'1011.0
2017-Jun-22 13:31N 35°25' E 139°44'510.2
2017-Jun-22 13:00N 35°23' E 139°49'0 0.6
2017-Jun-22 12:27N 35°23' E 139°50'0 0.0
2017-Jun-22 11:54N 35°23' E 139°50'0 0.0
2017-Jun-22 10:39N 35°23' E 139°50'0 0.0
2017-Jun-22 09:15N 35°23' E 139°50'0 0.0
2017-Jun-22 09:00N 35°23' E 139°50'2 4.0
2017-Jun-22 08:30N 35°21' E 139°51'0 0.2
2017-Jun-22 07:56N 35°21' E 139°51'0 0.0
2017-Jun-20 18:09N 35°21' E 139°51'0 1.7
2017-Jun-20 18:00N 35°21' E 139°51'0 0.3
2017-Jun-20 17:28N 35°21' E 139°51'0 0.0
2017-Jun-20 16:58N 35°21' E 139°51'0 0.0
2017-Jun-20 16:16N 35°21' E 139°51'0 0.0
2017-Jun-20 14:58N 35°21' E 139°51'0 0.0
2017-Jun-20 13:58N 35°21' E 139°51'0 0.0
2017-Jun-20 13:22N 35°21' E 139°51'0 0.0
2017-Jun-20 12:58N 35°21' E 139°51'0 0.0
2017-Jun-20 12:28N 35°21' E 139°51'0 0.0
2017-Jun-20 11:46N 35°21' E 139°51'0 0.0
2017-Jun-20 11:28N 35°21' E 139°51'0 0.0
2017-Jun-20 10:58N 35°21' E 139°51'0 0.0
2017-Jun-20 10:25N 35°21' E 139°51'0 0.0
2017-Jun-20 09:58N 35°21' E 139°51'0 0.0
2017-Jun-20 09:28N 35°21' E 139°51'0 0.0
2017-Jun-20 08:46N 35°21' E 139°51'0 0.0
2017-Jun-20 08:25N 35°21' E 139°51'0 0.0
2017-Jun-20 07:55N 35°21' E 139°51'0 0.8
2017-Jun-20 07:30N 35°22' E 139°51'510.5
2017-Jun-20 07:00N 35°27' E 139°50'611.6
2017-Jun-20 06:29N 35°32' E 139°53'711.6
2017-Jun-20 05:50N 35°38' E 139°58'4 0.1
2017-Jun-19 02:02N 35°35' E 139°56'111.7
2017-Jun-19 02:00N 35°34' E 139°56'712.1
2017-Jun-19 01:26N 35°29' E 139°51'511.5
2017-Jun-19 00:58N 35°25' E 139°47'511.7
2017-Jun-19 00:30N 35°20' E 139°44'610.9
2017-Jun-19 00:00N 35°15' E 139°47'240 8.9
2017-Jun-17 21:11N 34°26' E 135°01'213.1
2017-Jun-17 21:00N 34°29' E 135°01'612.6
2017-Jun-17 20:29N 34°35' E 135°03'610.3
2017-Jun-17 19:55N 34°36' E 134°56'712.1
2017-Jun-17 19:22N 34°40' E 134°49'1 0.0
2017-Jun-16 22:56N 34°41' E 134°49'5 9.8
2017-Jun-16 22:23N 34°37' E 134°54'610.3
2017-Jun-16 21:50N 34°37' E 135°01'3 9.5
2017-Jun-16 21:30N 34°36' E 135°05'511.1
2017-Jun-16 21:00N 34°37' E 135°11'612.7
2017-Jun-16 20:30N 34°38' E 135°19'611.9
2017-Jun-16 20:00N 34°39' E 135°26'0 0.0
2017-Jun-16 14:00N 34°39' E 135°26'510.9
2017-Jun-16 13:30N 34°37' E 135°20'611.2
2017-Jun-16 13:00N 34°35' E 135°13'712.9
2017-Jun-16 12:29N 34°35' E 135°05'  
Track history (hours):
 
Tides and Currents Weather Stations Pressure Air Temp Water Temp Dewpoint Dewpoint Depression Visibility Wind Speed Wind Dir Waves Ship Positions

Shinkai Maru

Last reported at 2017-Jun-25 05:49 UTC. Time now 2017-Jun-25 10:33 UTC.
Position N 34°40' E 134°48'.

Length 76 m; draft 4.1 m.

Type: Cargo ship. MMSI: 431301346.

Date/timePositionNaut miles runAvg speedWind from/ knotsBaromVisibWave heightAir tempDewpointWater temp
2017-Jun-25 05:49N 34°40' E 134°48'6 9.5
2017-Jun-25 05:11N 34°37' E 134°54'3 9.5
2017-Jun-25 04:50N 34°38' E 134°58'3 8.4
2017-Jun-25 04:30N 34°37' E 135°01'4 8.4
2017-Jun-25 04:00N 34°35' E 135°06'2111.6
2017-Jun-25 02:12N 34°14' E 134°60'212.2
2017-Jun-25 02:00N 34°12' E 134°60'612.4
2017-Jun-25 01:30N 34°06' E 135°01'  
2017-Jun-22 15:07N 35°08' E 139°42'412.6
2017-Jun-22 14:48N 35°11' E 139°45'411.4
2017-Jun-22 14:26N 35°15' E 139°46'1011.0
2017-Jun-22 13:31N 35°25' E 139°44'510.2
2017-Jun-22 13:00N 35°23' E 139°49'0 0.6
2017-Jun-22 12:27N 35°23' E 139°50'0 0.0
2017-Jun-22 11:54N 35°23' E 139°50'0 0.0
2017-Jun-22 10:39N 35°23' E 139°50'0 0.0
2017-Jun-22 09:15N 35°23' E 139°50'0 0.0
2017-Jun-22 09:00N 35°23' E 139°50'2 4.0
2017-Jun-22 08:30N 35°21' E 139°51'0 0.2
2017-Jun-22 07:56N 35°21' E 139°51'0 0.0
2017-Jun-20 18:09N 35°21' E 139°51'0 1.7
2017-Jun-20 18:00N 35°21' E 139°51'0 0.3
2017-Jun-20 17:28N 35°21' E 139°51'0 0.0
2017-Jun-20 16:58N 35°21' E 139°51'0 0.0
2017-Jun-20 16:16N 35°21' E 139°51'0 0.0
2017-Jun-20 14:58N 35°21' E 139°51'0 0.0
2017-Jun-20 13:58N 35°21' E 139°51'0 0.0
2017-Jun-20 13:22N 35°21' E 139°51'0 0.0
2017-Jun-20 12:58N 35°21' E 139°51'0 0.0
2017-Jun-20 12:28N 35°21' E 139°51'0 0.0
2017-Jun-20 11:46N 35°21' E 139°51'0 0.0
2017-Jun-20 11:28N 35°21' E 139°51'0 0.0
2017-Jun-20 10:58N 35°21' E 139°51'0 0.0
2017-Jun-20 10:25N 35°21' E 139°51'0 0.0
2017-Jun-20 09:58N 35°21' E 139°51'0 0.0
2017-Jun-20 09:28N 35°21' E 139°51'0 0.0
2017-Jun-20 08:46N 35°21' E 139°51'0 0.0
2017-Jun-20 08:25N 35°21' E 139°51'0 0.0
2017-Jun-20 07:55N 35°21' E 139°51'0 0.8
2017-Jun-20 07:30N 35°22' E 139°51'510.5
2017-Jun-20 07:00N 35°27' E 139°50'611.6
2017-Jun-20 06:29N 35°32' E 139°53'711.6
2017-Jun-20 05:50N 35°38' E 139°58'4 0.1
2017-Jun-19 02:02N 35°35' E 139°56'111.7
2017-Jun-19 02:00N 35°34' E 139°56'712.1
2017-Jun-19 01:26N 35°29' E 139°51'511.5
2017-Jun-19 00:58N 35°25' E 139°47'511.7
2017-Jun-19 00:30N 35°20' E 139°44'610.9
2017-Jun-19 00:00N 35°15' E 139°47'240 8.9
2017-Jun-17 21:11N 34°26' E 135°01'213.1
2017-Jun-17 21:00N 34°29' E 135°01'612.6
2017-Jun-17 20:29N 34°35' E 135°03'610.3
2017-Jun-17 19:55N 34°36' E 134°56'712.1
2017-Jun-17 19:22N 34°40' E 134°49'1 0.0
2017-Jun-16 22:56N 34°41' E 134°49'5 9.8
2017-Jun-16 22:23N 34°37' E 134°54'610.3
2017-Jun-16 21:50N 34°37' E 135°01'3 9.5
2017-Jun-16 21:30N 34°36' E 135°05'511.1
2017-Jun-16 21:00N 34°37' E 135°11'612.7
2017-Jun-16 20:30N 34°38' E 135°19'611.9
2017-Jun-16 20:00N 34°39' E 135°26'0 0.0
2017-Jun-16 14:00N 34°39' E 135°26'510.9
2017-Jun-16 13:30N 34°37' E 135°20'611.2
2017-Jun-16 13:00N 34°35' E 135°13'712.9
2017-Jun-16 12:29N 34°35' E 135°05'  

Dump ship's entire track history